sensor_id;sensor_type;location;lat;lon;timestamp;P1;durP1;ratioP1;P2;durP2;ratioP2
18702;SDS011;9481;48.796;9.210;2022-09-01T00:01:33;11.47;;;9.40;;
18702;SDS011;9481;48.796;9.210;2022-09-01T00:04:03;10.80;;;9.70;;
18702;SDS011;9481;48.796;9.210;2022-09-01T00:06:31;10.83;;;9.07;;
18702;SDS011;9481;48.796;9.210;2022-09-01T00:08:59;12.13;;;9.90;;
18702;SDS011;9481;48.796;9.210;2022-09-01T00:11:29;10.53;;;9.43;;
18702;SDS011;9481;48.796;9.210;2022-09-01T00:13:56;12.73;;;9.27;;
18702;SDS011;9481;48.796;9.210;2022-09-01T00:16:25;11.73;;;9.53;;
18702;SDS011;9481;48.796;9.210;2022-09-01T00:18:52;10.27;;;9.17;;
18702;SDS011;9481;48.796;9.210;2022-09-01T00:21:31;12.17;;;9.43;;
18702;SDS011;9481;48.796;9.210;2022-09-01T00:24:04;11.53;;;9.23;;
18702;SDS011;9481;48.796;9.210;2022-09-01T00:26:31;11.57;;;9.20;;
18702;SDS011;9481;48.796;9.210;2022-09-01T00:28:56;10.63;;;9.47;;
18702;SDS011;9481;48.796;9.210;2022-09-01T00:31:23;10.83;;;8.90;;
18702;SDS011;9481;48.796;9.210;2022-09-01T00:33:51;10.00;;;8.73;;
18702;SDS011;9481;48.796;9.210;2022-09-01T00:36:17;9.97;;;9.00;;
18702;SDS011;9481;48.796;9.210;2022-09-01T00:38:44;9.40;;;8.43;;
18702;SDS011;9481;48.796;9.210;2022-09-01T00:41:11;12.97;;;9.03;;
18702;SDS011;9481;48.796;9.210;2022-09-01T00:46:15;9.80;;;8.80;;
18702;SDS011;9481;48.796;9.210;2022-09-01T00:48:43;12.97;;;9.23;;
18702;SDS011;9481;48.796;9.210;2022-09-01T00:51:09;10.17;;;9.00;;
18702;SDS011;9481;48.796;9.210;2022-09-01T00:53:37;10.40;;;9.33;;
18702;SDS011;9481;48.796;9.210;2022-09-01T00:56:07;10.40;;;8.87;;
18702;SDS011;9481;48.796;9.210;2022-09-01T00:58:34;10.93;;;9.13;;
18702;SDS011;9481;48.796;9.210;2022-09-01T01:01:03;9.50;;;8.50;;
18702;SDS011;9481;48.796;9.210;2022-09-01T01:03:34;8.87;;;7.93;;
18702;SDS011;9481;48.796;9.210;2022-09-01T01:06:02;9.60;;;8.20;;
18702;SDS011;9481;48.796;9.210;2022-09-01T01:08:33;10.87;;;8.87;;
18702;SDS011;9481;48.796;9.210;2022-09-01T01:11:05;9.63;;;8.00;;
18702;SDS011;9481;48.796;9.210;2022-09-01T01:16:35;11.70;;;8.37;;
18702;SDS011;9481;48.796;9.210;2022-09-01T01:22:13;9.83;;;8.53;;
18702;SDS011;9481;48.796;9.210;2022-09-01T01:25:17;11.27;;;8.43;;
18702;SDS011;9481;48.796;9.210;2022-09-01T01:27:46;9.57;;;7.97;;
18702;SDS011;9481;48.796;9.210;2022-09-01T01:30:13;10.97;;;8.57;;
18702;SDS011;9481;48.796;9.210;2022-09-01T01:32:42;11.10;;;8.93;;
18702;SDS011;9481;48.796;9.210;2022-09-01T01:35:10;10.87;;;8.93;;
18702;SDS011;9481;48.796;9.210;2022-09-01T01:37:38;12.10;;;9.10;;
18702;SDS011;9481;48.796;9.210;2022-09-01T01:40:14;13.00;;;8.87;;
18702;SDS011;9481;48.796;9.210;2022-09-01T01:42:44;12.27;;;8.67;;
18702;SDS011;9481;48.796;9.210;2022-09-01T01:45:13;10.07;;;8.13;;
18702;SDS011;9481;48.796;9.210;2022-09-01T01:47:44;9.20;;;8.17;;
18702;SDS011;9481;48.796;9.210;2022-09-01T01:50:15;11.43;;;9.07;;
18702;SDS011;9481;48.796;9.210;2022-09-01T01:52:41;9.33;;;8.33;;
18702;SDS011;9481;48.796;9.210;2022-09-01T01:55:07;10.67;;;8.60;;
18702;SDS011;9481;48.796;9.210;2022-09-01T01:57:37;12.77;;;8.47;;
18702;SDS011;9481;48.796;9.210;2022-09-01T02:00:09;10.10;;;8.60;;
18702;SDS011;9481;48.796;9.210;2022-09-01T02:02:36;12.93;;;9.20;;
18702;SDS011;9481;48.796;9.210;2022-09-01T02:05:02;10.90;;;9.20;;
18702;SDS011;9481;48.796;9.210;2022-09-01T02:07:29;9.83;;;8.80;;
18702;SDS011;9481;48.796;9.210;2022-09-01T02:09:56;10.30;;;8.30;;
18702;SDS011;9481;48.796;9.210;2022-09-01T02:12:22;9.47;;;8.47;;
18702;SDS011;9481;48.796;9.210;2022-09-01T02:14:49;10.17;;;8.67;;
18702;SDS011;9481;48.796;9.210;2022-09-01T02:17:14;9.77;;;8.77;;
18702;SDS011;9481;48.796;9.210;2022-09-01T02:19:40;11.18;;;9.15;;
18702;SDS011;9481;48.796;9.210;2022-09-01T02:22:06;11.87;;;8.90;;
18702;SDS011;9481;48.796;9.210;2022-09-01T02:24:34;11.50;;;8.87;;
18702;SDS011;9481;48.796;9.210;2022-09-01T02:27:02;11.13;;;9.33;;
18702;SDS011;9481;48.796;9.210;2022-09-01T02:29:29;12.97;;;9.17;;
18702;SDS011;9481;48.796;9.210;2022-09-01T02:31:55;13.57;;;8.97;;
18702;SDS011;9481;48.796;9.210;2022-09-01T02:34:22;9.87;;;8.83;;
18702;SDS011;9481;48.796;9.210;2022-09-01T02:36:53;10.00;;;8.53;;
18702;SDS011;9481;48.796;9.210;2022-09-01T02:39:21;10.13;;;9.07;;
18702;SDS011;9481;48.796;9.210;2022-09-01T02:41:52;11.27;;;9.13;;
18702;SDS011;9481;48.796;9.210;2022-09-01T02:44:18;10.60;;;9.00;;
18702;SDS011;9481;48.796;9.210;2022-09-01T02:46:46;11.73;;;9.53;;
18702;SDS011;9481;48.796;9.210;2022-09-01T02:49:15;12.60;;;9.47;;
18702;SDS011;9481;48.796;9.210;2022-09-01T02:51:49;10.37;;;9.27;;
18702;SDS011;9481;48.796;9.210;2022-09-01T02:54:18;10.30;;;9.30;;
18702;SDS011;9481;48.796;9.210;2022-09-01T02:56:47;12.33;;;9.97;;
18702;SDS011;9481;48.796;9.210;2022-09-01T02:59:17;10.27;;;9.17;;
18702;SDS011;9481;48.796;9.210;2022-09-01T03:01:46;14.03;;;10.30;;
18702;SDS011;9481;48.796;9.210;2022-09-01T03:04:14;10.17;;;9.10;;
18702;SDS011;9481;48.796;9.210;2022-09-01T03:06:41;11.70;;;9.43;;
18702;SDS011;9481;48.796;9.210;2022-09-01T03:09:09;11.27;;;9.57;;
18702;SDS011;9481;48.796;9.210;2022-09-01T03:11:40;12.73;;;9.43;;
18702;SDS011;9481;48.796;9.210;2022-09-01T03:14:10;10.27;;;9.00;;
18702;SDS011;9481;48.796;9.210;2022-09-01T03:16:36;10.77;;;9.60;;
18702;SDS011;9481;48.796;9.210;2022-09-01T03:19:03;10.17;;;8.90;;
18702;SDS011;9481;48.796;9.210;2022-09-01T03:21:32;12.17;;;9.73;;
18702;SDS011;9481;48.796;9.210;2022-09-01T03:24:00;10.83;;;9.47;;
18702;SDS011;9481;48.796;9.210;2022-09-01T03:26:27;11.93;;;8.90;;
18702;SDS011;9481;48.796;9.210;2022-09-01T03:28:55;9.27;;;8.37;;
18702;SDS011;9481;48.796;9.210;2022-09-01T03:31:21;13.70;;;8.80;;
18702;SDS011;9481;48.796;9.210;2022-09-01T03:33:51;10.47;;;9.37;;
18702;SDS011;9481;48.796;9.210;2022-09-01T03:36:21;10.10;;;9.10;;
18702;SDS011;9481;48.796;9.210;2022-09-01T03:38:49;9.90;;;8.83;;
18702;SDS011;9481;48.796;9.210;2022-09-01T03:41:18;10.73;;;9.43;;
18702;SDS011;9481;48.796;9.210;2022-09-01T03:43:52;10.63;;;9.50;;
18702;SDS011;9481;48.796;9.210;2022-09-01T03:46:19;11.43;;;10.23;;
18702;SDS011;9481;48.796;9.210;2022-09-01T03:48:46;11.60;;;10.20;;
18702;SDS011;9481;48.796;9.210;2022-09-01T03:51:15;12.57;;;10.50;;
18702;SDS011;9481;48.796;9.210;2022-09-01T03:53:44;11.13;;;9.90;;
18702;SDS011;9481;48.796;9.210;2022-09-01T03:56:11;12.83;;;10.40;;
18702;SDS011;9481;48.796;9.210;2022-09-01T03:58:39;11.50;;;10.33;;
18702;SDS011;9481;48.796;9.210;2022-09-01T04:01:11;10.97;;;9.60;;
18702;SDS011;9481;48.796;9.210;2022-09-01T04:03:38;12.17;;;9.87;;
18702;SDS011;9481;48.796;9.210;2022-09-01T04:06:06;11.43;;;10.23;;
18702;SDS011;9481;48.796;9.210;2022-09-01T04:08:34;12.13;;;10.33;;
18702;SDS011;9481;48.796;9.210;2022-09-01T04:11:10;11.40;;;10.20;;
18702;SDS011;9481;48.796;9.210;2022-09-01T04:13:42;11.77;;;10.13;;
18702;SDS011;9481;48.796;9.210;2022-09-01T04:16:15;13.27;;;10.10;;
18702;SDS011;9481;48.796;9.210;2022-09-01T04:19:07;11.33;;;9.87;;
18702;SDS011;9481;48.796;9.210;2022-09-01T04:21:44;10.43;;;9.37;;
18702;SDS011;9481;48.796;9.210;2022-09-01T04:24:14;13.27;;;10.33;;
18702;SDS011;9481;48.796;9.210;2022-09-01T04:26:41;11.10;;;10.00;;
18702;SDS011;9481;48.796;9.210;2022-09-01T04:29:07;11.53;;;10.33;;
18702;SDS011;9481;48.796;9.210;2022-09-01T04:31:35;13.43;;;10.40;;
18702;SDS011;9481;48.796;9.210;2022-09-01T04:34:02;12.13;;;10.37;;
18702;SDS011;9481;48.796;9.210;2022-09-01T04:36:37;11.50;;;10.03;;
18702;SDS011;9481;48.796;9.210;2022-09-01T04:39:06;11.93;;;10.27;;
18702;SDS011;9481;48.796;9.210;2022-09-01T04:41:34;12.07;;;9.50;;
18702;SDS011;9481;48.796;9.210;2022-09-01T04:44:04;11.33;;;10.13;;
18702;SDS011;9481;48.796;9.210;2022-09-01T04:46:32;10.77;;;9.37;;
18702;SDS011;9481;48.796;9.210;2022-09-01T04:49:06;12.23;;;9.50;;
18702;SDS011;9481;48.796;9.210;2022-09-01T04:51:41;10.50;;;9.17;;
18702;SDS011;9481;48.796;9.210;2022-09-01T04:54:11;11.00;;;8.50;;
18702;SDS011;9481;48.796;9.210;2022-09-01T04:56:38;9.53;;;8.53;;
18702;SDS011;9481;48.796;9.210;2022-09-01T04:59:09;9.77;;;8.77;;
18702;SDS011;9481;48.796;9.210;2022-09-01T05:01:38;9.47;;;8.40;;
18702;SDS011;9481;48.796;9.210;2022-09-01T05:04:09;11.43;;;8.13;;
18702;SDS011;9481;48.796;9.210;2022-09-01T05:06:42;8.97;;;7.80;;
18702;SDS011;9481;48.796;9.210;2022-09-01T05:09:15;9.30;;;8.27;;
18702;SDS011;9481;48.796;9.210;2022-09-01T05:11:43;10.57;;;8.47;;
18702;SDS011;9481;48.796;9.210;2022-09-01T05:14:09;9.13;;;7.83;;
18702;SDS011;9481;48.796;9.210;2022-09-01T05:16:42;8.63;;;7.60;;
18702;SDS011;9481;48.796;9.210;2022-09-01T05:19:08;9.23;;;8.27;;
18702;SDS011;9481;48.796;9.210;2022-09-01T05:21:38;8.70;;;7.53;;
18702;SDS011;9481;48.796;9.210;2022-09-01T05:24:13;8.30;;;7.50;;
18702;SDS011;9481;48.796;9.210;2022-09-01T05:26:45;8.63;;;7.50;;
18702;SDS011;9481;48.796;9.210;2022-09-01T05:29:13;8.80;;;7.90;;
18702;SDS011;9481;48.796;9.210;2022-09-01T05:31:41;8.87;;;7.53;;
18702;SDS011;9481;48.796;9.210;2022-09-01T05:34:10;8.67;;;7.70;;
18702;SDS011;9481;48.796;9.210;2022-09-01T05:36:40;8.60;;;7.70;;
18702;SDS011;9481;48.796;9.210;2022-09-01T05:39:10;8.50;;;7.53;;
18702;SDS011;9481;48.796;9.210;2022-09-01T05:41:37;11.17;;;8.13;;
18702;SDS011;9481;48.796;9.210;2022-09-01T05:44:06;9.60;;;7.93;;
18702;SDS011;9481;48.796;9.210;2022-09-01T05:46:34;8.40;;;7.60;;
18702;SDS011;9481;48.796;9.210;2022-09-01T05:49:04;9.50;;;8.43;;
18702;SDS011;9481;48.796;9.210;2022-09-01T05:51:39;9.90;;;8.67;;
18702;SDS011;9481;48.796;9.210;2022-09-01T05:54:13;12.03;;;8.87;;
18702;SDS011;9481;48.796;9.210;2022-09-01T05:56:47;9.90;;;8.90;;
18702;SDS011;9481;48.796;9.210;2022-09-01T05:59:13;9.83;;;8.83;;
18702;SDS011;9481;48.796;9.210;2022-09-01T06:01:40;10.57;;;9.40;;
18702;SDS011;9481;48.796;9.210;2022-09-01T06:04:06;11.13;;;9.67;;
18702;SDS011;9481;48.796;9.210;2022-09-01T06:06:39;10.37;;;9.27;;
18702;SDS011;9481;48.796;9.210;2022-09-01T06:09:10;10.90;;;9.13;;
18702;SDS011;9481;48.796;9.210;2022-09-01T06:11:38;10.03;;;8.70;;
18702;SDS011;9481;48.796;9.210;2022-09-01T06:14:05;11.13;;;9.13;;
18702;SDS011;9481;48.796;9.210;2022-09-01T06:16:35;10.03;;;9.03;;
18702;SDS011;9481;48.796;9.210;2022-09-01T06:19:02;10.30;;;9.20;;
18702;SDS011;9481;48.796;9.210;2022-09-01T06:21:29;12.60;;;8.93;;
18702;SDS011;9481;48.796;9.210;2022-09-01T06:23:56;11.43;;;8.57;;
18702;SDS011;9481;48.796;9.210;2022-09-01T06:26:27;9.07;;;8.13;;
18702;SDS011;9481;48.796;9.210;2022-09-01T06:28:56;9.57;;;8.03;;
18702;SDS011;9481;48.796;9.210;2022-09-01T06:31:29;10.53;;;8.77;;
18702;SDS011;9481;48.796;9.210;2022-09-01T06:34:00;9.03;;;8.13;;
18702;SDS011;9481;48.796;9.210;2022-09-01T06:36:27;10.97;;;8.73;;
18702;SDS011;9481;48.796;9.210;2022-09-01T06:38:56;8.67;;;7.80;;
18702;SDS011;9481;48.796;9.210;2022-09-01T06:41:24;10.03;;;8.70;;
18702;SDS011;9481;48.796;9.210;2022-09-01T06:43:50;14.37;;;8.73;;
18702;SDS011;9481;48.796;9.210;2022-09-01T06:46:18;11.27;;;8.77;;
18702;SDS011;9481;48.796;9.210;2022-09-01T06:48:45;9.70;;;8.33;;
18702;SDS011;9481;48.796;9.210;2022-09-01T06:51:13;10.10;;;8.97;;
18702;SDS011;9481;48.796;9.210;2022-09-01T06:53:47;9.30;;;8.33;;
18702;SDS011;9481;48.796;9.210;2022-09-01T06:56:20;8.37;;;7.57;;
18702;SDS011;9481;48.796;9.210;2022-09-01T06:58:50;10.10;;;7.63;;
18702;SDS011;9481;48.796;9.210;2022-09-01T07:01:18;8.23;;;7.33;;
18702;SDS011;9481;48.796;9.210;2022-09-01T07:03:46;7.67;;;6.80;;
18702;SDS011;9481;48.796;9.210;2022-09-01T07:06:16;7.83;;;7.00;;
18702;SDS011;9481;48.796;9.210;2022-09-01T07:08:44;6.90;;;6.10;;
18702;SDS011;9481;48.796;9.210;2022-09-01T07:11:17;5.27;;;4.77;;
18702;SDS011;9481;48.796;9.210;2022-09-01T07:13:52;7.30;;;4.80;;
18702;SDS011;9481;48.796;9.210;2022-09-01T07:16:22;6.37;;;5.67;;
18702;SDS011;9481;48.796;9.210;2022-09-01T07:18:52;5.50;;;4.67;;
18702;SDS011;9481;48.796;9.210;2022-09-01T07:21:22;6.07;;;5.47;;
18702;SDS011;9481;48.796;9.210;2022-09-01T07:23:49;7.10;;;6.20;;
18702;SDS011;9481;48.796;9.210;2022-09-01T07:26:15;5.30;;;4.80;;
18702;SDS011;9481;48.796;9.210;2022-09-01T07:28:46;7.20;;;5.20;;
18702;SDS011;9481;48.796;9.210;2022-09-01T07:31:20;5.87;;;5.17;;
18702;SDS011;9481;48.796;9.210;2022-09-01T07:33:53;6.93;;;6.20;;
18702;SDS011;9481;48.796;9.210;2022-09-01T07:36:22;5.63;;;5.03;;
18702;SDS011;9481;48.796;9.210;2022-09-01T07:38:49;6.97;;;6.27;;
18702;SDS011;9481;48.796;9.210;2022-09-01T07:41:18;6.80;;;6.13;;
18702;SDS011;9481;48.796;9.210;2022-09-01T07:43:49;7.47;;;6.03;;
18702;SDS011;9481;48.796;9.210;2022-09-01T07:46:17;8.50;;;6.87;;
18702;SDS011;9481;48.796;9.210;2022-09-01T07:48:45;8.40;;;6.33;;
18702;SDS011;9481;48.796;9.210;2022-09-01T07:51:12;8.00;;;7.20;;
18702;SDS011;9481;48.796;9.210;2022-09-01T07:53:43;8.47;;;7.57;;
18702;SDS011;9481;48.796;9.210;2022-09-01T07:56:12;8.03;;;7.23;;
18702;SDS011;9481;48.796;9.210;2022-09-01T07:58:43;9.30;;;7.83;;
18702;SDS011;9481;48.796;9.210;2022-09-01T08:01:11;8.80;;;7.90;;
18702;SDS011;9481;48.796;9.210;2022-09-01T08:03:42;7.87;;;7.07;;
18702;SDS011;9481;48.796;9.210;2022-09-01T08:06:12;10.37;;;8.03;;
18702;SDS011;9481;48.796;9.210;2022-09-01T08:08:43;11.23;;;8.10;;
18702;SDS011;9481;48.796;9.210;2022-09-01T08:11:14;11.70;;;8.13;;
18702;SDS011;9481;48.796;9.210;2022-09-01T08:13:49;10.10;;;7.87;;
18702;SDS011;9481;48.796;9.210;2022-09-01T08:16:16;8.63;;;7.43;;
18702;SDS011;9481;48.796;9.210;2022-09-01T08:18:42;10.13;;;8.00;;
18702;SDS011;9481;48.796;9.210;2022-09-01T08:21:10;8.40;;;7.50;;
18702;SDS011;9481;48.796;9.210;2022-09-01T08:23:37;8.87;;;7.97;;
18702;SDS011;9481;48.796;9.210;2022-09-01T08:26:04;8.47;;;7.63;;
18702;SDS011;9481;48.796;9.210;2022-09-01T08:28:36;10.17;;;7.90;;
18702;SDS011;9481;48.796;9.210;2022-09-01T08:31:08;10.00;;;7.80;;
18702;SDS011;9481;48.796;9.210;2022-09-01T08:33:37;8.30;;;7.50;;
18702;SDS011;9481;48.796;9.210;2022-09-01T08:36:06;7.27;;;6.53;;
18702;SDS011;9481;48.796;9.210;2022-09-01T08:38:34;7.00;;;6.30;;
18702;SDS011;9481;48.796;9.210;2022-09-01T08:41:01;6.03;;;5.43;;
18702;SDS011;9481;48.796;9.210;2022-09-01T08:46:02;6.50;;;5.90;;
18702;SDS011;9481;48.796;9.210;2022-09-01T08:48:59;9.10;;;6.30;;
18702;SDS011;9481;48.796;9.210;2022-09-01T08:51:39;6.90;;;6.20;;
18702;SDS011;9481;48.796;9.210;2022-09-01T08:57:15;5.90;;;5.27;;
18702;SDS011;9481;48.796;9.210;2022-09-01T08:59:51;5.93;;;5.33;;
18702;SDS011;9481;48.796;9.210;2022-09-01T09:02:32;6.47;;;5.87;;
18702;SDS011;9481;48.796;9.210;2022-09-01T09:08:23;5.67;;;4.83;;
18702;SDS011;9481;48.796;9.210;2022-09-01T09:12:17;5.47;;;4.83;;
18702;SDS011;9481;48.796;9.210;2022-09-01T09:14:43;5.87;;;5.27;;
18702;SDS011;9481;48.796;9.210;2022-09-01T09:17:42;5.30;;;4.80;;
18702;SDS011;9481;48.796;9.210;2022-09-01T09:20:20;6.20;;;5.47;;
18702;SDS011;9481;48.796;9.210;2022-09-01T09:22:46;5.67;;;5.10;;
18702;SDS011;9481;48.796;9.210;2022-09-01T09:25:14;6.20;;;5.50;;
18702;SDS011;9481;48.796;9.210;2022-09-01T09:27:46;6.57;;;5.83;;
18702;SDS011;9481;48.796;9.210;2022-09-01T09:32:51;5.90;;;5.30;;
18702;SDS011;9481;48.796;9.210;2022-09-01T09:40:57;5.20;;;4.70;;
18702;SDS011;9481;48.796;9.210;2022-09-01T09:43:48;5.63;;;5.07;;
18702;SDS011;9481;48.796;9.210;2022-09-01T09:54:38;5.73;;;4.03;;
18702;SDS011;9481;48.796;9.210;2022-09-01T09:57:23;4.73;;;4.03;;
18702;SDS011;9481;48.796;9.210;2022-09-01T09:59:53;4.40;;;4.00;;
18702;SDS011;9481;48.796;9.210;2022-09-01T10:02:47;4.23;;;3.83;;
18702;SDS011;9481;48.796;9.210;2022-09-01T10:05:24;4.00;;;3.60;;
18702;SDS011;9481;48.796;9.210;2022-09-01T10:08:06;4.43;;;3.43;;
18702;SDS011;9481;48.796;9.210;2022-09-01T10:10:46;4.07;;;3.00;;
18702;SDS011;9481;48.796;9.210;2022-09-01T10:13:16;3.97;;;2.93;;
18702;SDS011;9481;48.796;9.210;2022-09-01T10:15:49;3.03;;;2.70;;
18702;SDS011;9481;48.796;9.210;2022-09-01T10:18:20;4.20;;;3.17;;
18702;SDS011;9481;48.796;9.210;2022-09-01T10:20:52;3.00;;;2.80;;
18702;SDS011;9481;48.796;9.210;2022-09-01T10:23:32;2.93;;;2.73;;
18702;SDS011;9481;48.796;9.210;2022-09-01T10:26:06;3.53;;;3.23;;
18702;SDS011;9481;48.796;9.210;2022-09-01T10:28:40;3.60;;;3.30;;
18702;SDS011;9481;48.796;9.210;2022-09-01T10:31:20;3.30;;;3.00;;
18702;SDS011;9481;48.796;9.210;2022-09-01T10:33:47;3.57;;;2.97;;
18702;SDS011;9481;48.796;9.210;2022-09-01T10:36:14;3.93;;;3.17;;
18702;SDS011;9481;48.796;9.210;2022-09-01T10:38:42;3.03;;;2.83;;
18702;SDS011;9481;48.796;9.210;2022-09-01T10:41:08;3.70;;;3.40;;
18702;SDS011;9481;48.796;9.210;2022-09-01T10:43:38;3.63;;;3.23;;
18702;SDS011;9481;48.796;9.210;2022-09-01T10:48:48;4.10;;;3.63;;
18702;SDS011;9481;48.796;9.210;2022-09-01T11:07:04;2.83;;;2.57;;
18702;SDS011;9481;48.796;9.210;2022-09-01T11:15:45;2.97;;;2.60;;
18702;SDS011;9481;48.796;9.210;2022-09-01T11:20:50;2.77;;;2.57;;
18702;SDS011;9481;48.796;9.210;2022-09-01T11:23:22;3.03;;;2.73;;
18702;SDS011;9481;48.796;9.210;2022-09-01T11:31:15;3.57;;;3.00;;
18702;SDS011;9481;48.796;9.210;2022-09-01T11:33:56;3.10;;;2.80;;
18702;SDS011;9481;48.796;9.210;2022-09-01T11:41:58;3.93;;;2.60;;
18702;SDS011;9481;48.796;9.210;2022-09-01T11:47:26;3.10;;;2.70;;
18702;SDS011;9481;48.796;9.210;2022-09-01T11:50:04;3.47;;;3.17;;
18702;SDS011;9481;48.796;9.210;2022-09-01T11:52:41;3.23;;;2.93;;
18702;SDS011;9481;48.796;9.210;2022-09-01T11:55:28;2.70;;;2.50;;
18702;SDS011;9481;48.796;9.210;2022-09-01T11:58:00;2.90;;;2.63;;
18702;SDS011;9481;48.796;9.210;2022-09-01T12:00:34;2.83;;;2.50;;
18702;SDS011;9481;48.796;9.210;2022-09-01T12:03:04;2.67;;;2.47;;
18702;SDS011;9481;48.796;9.210;2022-09-01T12:05:45;2.70;;;2.50;;
18702;SDS011;9481;48.796;9.210;2022-09-01T12:08:16;2.50;;;2.30;;
18702;SDS011;9481;48.796;9.210;2022-09-01T12:10:43;2.53;;;2.33;;
18702;SDS011;9481;48.796;9.210;2022-09-01T12:13:16;4.80;;;2.73;;
18702;SDS011;9481;48.796;9.210;2022-09-01T12:15:50;2.47;;;2.27;;
18702;SDS011;9481;48.796;9.210;2022-09-01T12:18:27;2.90;;;2.60;;
18702;SDS011;9481;48.796;9.210;2022-09-01T12:20:57;2.63;;;2.43;;
18702;SDS011;9481;48.796;9.210;2022-09-01T12:23:33;2.83;;;2.63;;
18702;SDS011;9481;48.796;9.210;2022-09-01T12:26:08;2.70;;;2.50;;
18702;SDS011;9481;48.796;9.210;2022-09-01T12:28:50;4.53;;;2.50;;
18702;SDS011;9481;48.796;9.210;2022-09-01T12:31:25;2.43;;;2.23;;
18702;SDS011;9481;48.796;9.210;2022-09-01T12:33:52;2.80;;;2.37;;
18702;SDS011;9481;48.796;9.210;2022-09-01T12:36:24;2.90;;;2.70;;
18702;SDS011;9481;48.796;9.210;2022-09-01T12:38:53;2.70;;;2.50;;
18702;SDS011;9481;48.796;9.210;2022-09-01T12:41:40;2.90;;;2.70;;
18702;SDS011;9481;48.796;9.210;2022-09-01T12:47:03;3.03;;;2.73;;
18702;SDS011;9481;48.796;9.210;2022-09-01T12:50:03;2.80;;;2.40;;
18702;SDS011;9481;48.796;9.210;2022-09-01T12:52:55;2.40;;;2.23;;
18702;SDS011;9481;48.796;9.210;2022-09-01T12:55:29;3.13;;;2.60;;
18702;SDS011;9481;48.796;9.210;2022-09-01T12:57:59;2.50;;;2.30;;
18702;SDS011;9481;48.796;9.210;2022-09-01T13:00:29;2.93;;;2.50;;
18702;SDS011;9481;48.796;9.210;2022-09-01T13:05:42;2.67;;;2.47;;
18702;SDS011;9481;48.796;9.210;2022-09-01T13:08:12;3.10;;;2.80;;
18702;SDS011;9481;48.796;9.210;2022-09-01T13:10:46;2.30;;;2.10;;
18702;SDS011;9481;48.796;9.210;2022-09-01T13:13:16;2.70;;;2.50;;
18702;SDS011;9481;48.796;9.210;2022-09-01T13:15:44;3.00;;;2.80;;
18702;SDS011;9481;48.796;9.210;2022-09-01T13:18:14;2.50;;;2.30;;
18702;SDS011;9481;48.796;9.210;2022-09-01T13:20:45;2.70;;;2.50;;
18702;SDS011;9481;48.796;9.210;2022-09-01T13:23:11;2.37;;;2.17;;
18702;SDS011;9481;48.796;9.210;2022-09-01T13:25:38;2.90;;;2.70;;
18702;SDS011;9481;48.796;9.210;2022-09-01T13:28:05;2.60;;;2.40;;
18702;SDS011;9481;48.796;9.210;2022-09-01T13:30:32;2.80;;;2.60;;
18702;SDS011;9481;48.796;9.210;2022-09-01T13:32:58;2.70;;;2.50;;
18702;SDS011;9481;48.796;9.210;2022-09-01T13:35:24;2.73;;;2.43;;
18702;SDS011;9481;48.796;9.210;2022-09-01T13:37:50;2.63;;;2.43;;
18702;SDS011;9481;48.796;9.210;2022-09-01T13:40:17;2.90;;;2.70;;
18702;SDS011;9481;48.796;9.210;2022-09-01T13:42:45;3.23;;;2.93;;
18702;SDS011;9481;48.796;9.210;2022-09-01T13:45:19;3.17;;;2.87;;
18702;SDS011;9481;48.796;9.210;2022-09-01T13:47:51;3.43;;;2.97;;
18702;SDS011;9481;48.796;9.210;2022-09-01T13:50:19;3.17;;;2.97;;
18702;SDS011;9481;48.796;9.210;2022-09-01T13:52:54;3.13;;;2.93;;
18702;SDS011;9481;48.796;9.210;2022-09-01T13:55:22;2.60;;;2.40;;
18702;SDS011;9481;48.796;9.210;2022-09-01T13:57:51;4.40;;;2.93;;
18702;SDS011;9481;48.796;9.210;2022-09-01T14:00:20;3.83;;;2.90;;
18702;SDS011;9481;48.796;9.210;2022-09-01T14:02:49;2.77;;;2.53;;
18702;SDS011;9481;48.796;9.210;2022-09-01T14:05:20;4.80;;;2.67;;
18702;SDS011;9481;48.796;9.210;2022-09-01T14:07:49;3.03;;;2.80;;
18702;SDS011;9481;48.796;9.210;2022-09-01T14:10:17;2.90;;;2.70;;
18702;SDS011;9481;48.796;9.210;2022-09-01T14:12:44;3.00;;;2.70;;
18702;SDS011;9481;48.796;9.210;2022-09-01T14:15:10;5.10;;;2.90;;
18702;SDS011;9481;48.796;9.210;2022-09-01T14:17:39;2.97;;;2.77;;
18702;SDS011;9481;48.796;9.210;2022-09-01T14:20:07;3.00;;;2.80;;
18702;SDS011;9481;48.796;9.210;2022-09-01T14:22:38;3.07;;;2.77;;
18702;SDS011;9481;48.796;9.210;2022-09-01T14:25:05;2.60;;;2.40;;
18702;SDS011;9481;48.796;9.210;2022-09-01T14:27:33;2.50;;;2.30;;
18702;SDS011;9481;48.796;9.210;2022-09-01T14:29:59;2.53;;;2.20;;
18702;SDS011;9481;48.796;9.210;2022-09-01T14:32:24;4.43;;;2.23;;
18702;SDS011;9481;48.796;9.210;2022-09-01T14:34:55;2.10;;;2.00;;
18702;SDS011;9481;48.796;9.210;2022-09-01T14:37:21;3.60;;;2.70;;
18702;SDS011;9481;48.796;9.210;2022-09-01T14:39:48;2.10;;;2.00;;
18702;SDS011;9481;48.796;9.210;2022-09-01T14:42:19;2.27;;;2.07;;
18702;SDS011;9481;48.796;9.210;2022-09-01T14:44:49;3.13;;;2.20;;
18702;SDS011;9481;48.796;9.210;2022-09-01T14:47:16;2.50;;;2.30;;
18702;SDS011;9481;48.796;9.210;2022-09-01T14:49:43;2.50;;;2.20;;
18702;SDS011;9481;48.796;9.210;2022-09-01T14:52:09;2.33;;;2.13;;
18702;SDS011;9481;48.796;9.210;2022-09-01T14:54:36;2.07;;;1.93;;
18702;SDS011;9481;48.796;9.210;2022-09-01T14:57:04;1.83;;;1.73;;
18702;SDS011;9481;48.796;9.210;2022-09-01T14:59:31;3.37;;;2.00;;
18702;SDS011;9481;48.796;9.210;2022-09-01T15:01:57;2.00;;;1.90;;
18702;SDS011;9481;48.796;9.210;2022-09-01T15:04:23;2.57;;;2.10;;
18702;SDS011;9481;48.796;9.210;2022-09-01T15:06:50;2.33;;;2.13;;
18702;SDS011;9481;48.796;9.210;2022-09-01T15:09:15;1.77;;;1.67;;
18702;SDS011;9481;48.796;9.210;2022-09-01T15:11:41;2.30;;;2.10;;
18702;SDS011;9481;48.796;9.210;2022-09-01T15:14:07;2.53;;;2.17;;
18702;SDS011;9481;48.796;9.210;2022-09-01T15:16:33;2.23;;;2.03;;
18702;SDS011;9481;48.796;9.210;2022-09-01T15:19:05;3.53;;;2.17;;
18702;SDS011;9481;48.796;9.210;2022-09-01T15:21:34;2.50;;;2.30;;
18702;SDS011;9481;48.796;9.210;2022-09-01T15:24:01;2.03;;;1.93;;
18702;SDS011;9481;48.796;9.210;2022-09-01T15:26:28;2.10;;;2.00;;
18702;SDS011;9481;48.796;9.210;2022-09-01T15:28:54;2.30;;;2.10;;
18702;SDS011;9481;48.796;9.210;2022-09-01T15:31:21;4.60;;;2.70;;
18702;SDS011;9481;48.796;9.210;2022-09-01T15:33:50;2.40;;;2.20;;
18702;SDS011;9481;48.796;9.210;2022-09-01T15:36:20;3.67;;;2.23;;
18702;SDS011;9481;48.796;9.210;2022-09-01T15:38:48;3.37;;;2.20;;
18702;SDS011;9481;48.796;9.210;2022-09-01T15:41:19;2.47;;;2.27;;
18702;SDS011;9481;48.796;9.210;2022-09-01T15:43:49;2.80;;;2.30;;
18702;SDS011;9481;48.796;9.210;2022-09-01T15:46:15;2.70;;;2.50;;
18702;SDS011;9481;48.796;9.210;2022-09-01T15:48:43;2.20;;;1.93;;
18702;SDS011;9481;48.796;9.210;2022-09-01T15:53:47;1.90;;;1.80;;
18702;SDS011;9481;48.796;9.210;2022-09-01T15:56:14;2.73;;;2.00;;
18702;SDS011;9481;48.796;9.210;2022-09-01T15:58:42;2.83;;;2.63;;
18702;SDS011;9481;48.796;9.210;2022-09-01T16:01:09;2.30;;;2.10;;
18702;SDS011;9481;48.796;9.210;2022-09-01T16:03:34;2.80;;;2.60;;
18702;SDS011;9481;48.796;9.210;2022-09-01T16:06:00;2.87;;;2.50;;
18702;SDS011;9481;48.796;9.210;2022-09-01T16:08:27;2.60;;;2.40;;
18702;SDS011;9481;48.796;9.210;2022-09-01T16:10:53;2.93;;;2.33;;
18702;SDS011;9481;48.796;9.210;2022-09-01T16:13:19;2.80;;;2.43;;
18702;SDS011;9481;48.796;9.210;2022-09-01T16:15:55;2.27;;;2.17;;
18702;SDS011;9481;48.796;9.210;2022-09-01T16:19:00;4.23;;;2.20;;
18702;SDS011;9481;48.796;9.210;2022-09-01T16:24:45;2.97;;;2.43;;
18702;SDS011;9481;48.796;9.210;2022-09-01T16:27:17;2.40;;;2.20;;
18702;SDS011;9481;48.796;9.210;2022-09-01T16:29:56;2.53;;;2.33;;
18702;SDS011;9481;48.796;9.210;2022-09-01T16:32:29;3.67;;;2.70;;
18702;SDS011;9481;48.796;9.210;2022-09-01T16:34:57;3.33;;;2.50;;
18702;SDS011;9481;48.796;9.210;2022-09-01T16:37:38;5.70;;;2.37;;
18702;SDS011;9481;48.796;9.210;2022-09-01T16:40:20;2.27;;;2.07;;
18702;SDS011;9481;48.796;9.210;2022-09-01T16:43:02;2.63;;;2.43;;